sensor_id;sensor_type;location;lat;lon;timestamp;temperature;humidity
17092;DHT22;8661;45.700;4.880;2023-05-10T00:02:07;12.70;99.90
17092;DHT22;8661;45.700;4.880;2023-05-10T00:04:34;12.80;99.90
17092;DHT22;8661;45.700;4.880;2023-05-10T00:07:01;12.80;99.90
17092;DHT22;8661;45.700;4.880;2023-05-10T00:09:28;12.80;99.90
17092;DHT22;8661;45.700;4.880;2023-05-10T00:11:55;12.80;99.90
17092;DHT22;8661;45.700;4.880;2023-05-10T00:14:25;12.80;99.90
17092;DHT22;8661;45.700;4.880;2023-05-10T00:16:52;12.80;99.90
17092;DHT22;8661;45.700;4.880;2023-05-10T00:19:19;12.80;99.90
17092;DHT22;8661;45.700;4.880;2023-05-10T00:21:46;12.80;99.90
17092;DHT22;8661;45.700;4.880;2023-05-10T00:24:13;12.90;99.90
17092;DHT22;8661;45.700;4.880;2023-05-10T00:26:39;12.90;99.90
17092;DHT22;8661;45.700;4.880;2023-05-10T00:29:07;12.90;99.90
17092;DHT22;8661;45.700;4.880;2023-05-10T00:31:35;12.90;99.90
17092;DHT22;8661;45.700;4.880;2023-05-10T00:34:02;12.90;99.90
17092;DHT22;8661;45.700;4.880;2023-05-10T00:36:29;12.90;99.90
17092;DHT22;8661;45.700;4.880;2023-05-10T00:38:56;12.90;99.90
17092;DHT22;8661;45.700;4.880;2023-05-10T00:41:23;12.90;99.90
17092;DHT22;8661;45.700;4.880;2023-05-10T00:43:50;12.80;99.90
17092;DHT22;8661;45.700;4.880;2023-05-10T00:46:17;12.80;99.90
17092;DHT22;8661;45.700;4.880;2023-05-10T00:48:45;12.80;99.90
17092;DHT22;8661;45.700;4.880;2023-05-10T00:51:12;12.80;99.90
17092;DHT22;8661;45.700;4.880;2023-05-10T00:53:40;12.70;99.90
17092;DHT22;8661;45.700;4.880;2023-05-10T00:56:07;12.70;99.90
17092;DHT22;8661;45.700;4.880;2023-05-10T00:58:34;12.70;99.90
17092;DHT22;8661;45.700;4.880;2023-05-10T01:01:01;12.70;99.90
17092;DHT22;8661;45.700;4.880;2023-05-10T01:03:29;12.70;99.90
17092;DHT22;8661;45.700;4.880;2023-05-10T01:05:57;12.70;99.90
17092;DHT22;8661;45.700;4.880;2023-05-10T01:08:24;12.80;99.90
17092;DHT22;8661;45.700;4.880;2023-05-10T01:10:51;12.80;99.90
17092;DHT22;8661;45.700;4.880;2023-05-10T01:13:27;12.80;99.90
17092;DHT22;8661;45.700;4.880;2023-05-10T01:15:55;12.80;99.90
17092;DHT22;8661;45.700;4.880;2023-05-10T01:18:23;12.80;99.90
17092;DHT22;8661;45.700;4.880;2023-05-10T01:20:57;12.80;99.90
17092;DHT22;8661;45.700;4.880;2023-05-10T01:23:40;12.90;99.90
17092;DHT22;8661;45.700;4.880;2023-05-10T01:26:39;12.90;99.90
17092;DHT22;8661;45.700;4.880;2023-05-10T01:29:32;13.00;99.90
17092;DHT22;8661;45.700;4.880;2023-05-10T01:32:26;13.00;99.90
17092;DHT22;8661;45.700;4.880;2023-05-10T01:35:00;13.00;99.90
17092;DHT22;8661;45.700;4.880;2023-05-10T01:37:33;13.10;99.90
17092;DHT22;8661;45.700;4.880;2023-05-10T01:40:08;13.10;99.90
17092;DHT22;8661;45.700;4.880;2023-05-10T01:42:46;13.10;99.90
17092;DHT22;8661;45.700;4.880;2023-05-10T01:45:20;13.10;99.90
17092;DHT22;8661;45.700;4.880;2023-05-10T01:47:57;13.20;99.90
17092;DHT22;8661;45.700;4.880;2023-05-10T01:50:29;13.20;99.90
17092;DHT22;8661;45.700;4.880;2023-05-10T01:52:58;13.20;99.90
17092;DHT22;8661;45.700;4.880;2023-05-10T01:55:28;13.20;99.90
17092;DHT22;8661;45.700;4.880;2023-05-10T01:58:02;13.20;99.90
17092;DHT22;8661;45.700;4.880;2023-05-10T02:00:29;13.20;99.90
17092;DHT22;8661;45.700;4.880;2023-05-10T02:03:00;13.10;99.90
17092;DHT22;8661;45.700;4.880;2023-05-10T02:05:29;13.10;99.90
17092;DHT22;8661;45.700;4.880;2023-05-10T02:07:58;13.00;99.90
17092;DHT22;8661;45.700;4.880;2023-05-10T02:10:26;13.00;99.90
17092;DHT22;8661;45.700;4.880;2023-05-10T02:12:55;13.00;99.90
17092;DHT22;8661;45.700;4.880;2023-05-10T02:15:25;13.00;99.90
17092;DHT22;8661;45.700;4.880;2023-05-10T02:17:55;13.00;99.90
17092;DHT22;8661;45.700;4.880;2023-05-10T02:20:24;12.90;99.90
17092;DHT22;8661;45.700;4.880;2023-05-10T02:22:53;12.90;99.90
17092;DHT22;8661;45.700;4.880;2023-05-10T02:25:22;12.80;99.90
17092;DHT22;8661;45.700;4.880;2023-05-10T02:27:50;12.80;99.90
17092;DHT22;8661;45.700;4.880;2023-05-10T02:30:18;12.80;99.90
17092;DHT22;8661;45.700;4.880;2023-05-10T02:32:46;12.80;99.90
17092;DHT22;8661;45.700;4.880;2023-05-10T02:35:14;12.80;99.90
17092;DHT22;8661;45.700;4.880;2023-05-10T02:37:43;12.80;99.90
17092;DHT22;8661;45.700;4.880;2023-05-10T02:40:13;12.90;99.90
17092;DHT22;8661;45.700;4.880;2023-05-10T02:42:42;12.90;99.90
17092;DHT22;8661;45.700;4.880;2023-05-10T02:45:13;12.90;99.90
17092;DHT22;8661;45.700;4.880;2023-05-10T02:47:44;12.90;99.90
17092;DHT22;8661;45.700;4.880;2023-05-10T02:50:10;13.00;99.90
17092;DHT22;8661;45.700;4.880;2023-05-10T02:52:40;12.90;99.90
17092;DHT22;8661;45.700;4.880;2023-05-10T02:55:12;13.00;99.90
17092;DHT22;8661;45.700;4.880;2023-05-10T02:57:43;13.00;99.90
17092;DHT22;8661;45.700;4.880;2023-05-10T03:00:12;13.00;99.90
17092;DHT22;8661;45.700;4.880;2023-05-10T03:02:39;13.00;99.90
17092;DHT22;8661;45.700;4.880;2023-05-10T03:05:06;13.00;99.90
17092;DHT22;8661;45.700;4.880;2023-05-10T03:07:33;13.00;99.90
17092;DHT22;8661;45.700;4.880;2023-05-10T03:10:00;12.90;99.90
17092;DHT22;8661;45.700;4.880;2023-05-10T03:12:37;12.90;99.90
17092;DHT22;8661;45.700;4.880;2023-05-10T03:15:14;12.80;99.90
17092;DHT22;8661;45.700;4.880;2023-05-10T03:17:47;12.80;99.90
17092;DHT22;8661;45.700;4.880;2023-05-10T03:20:21;12.80;99.90
17092;DHT22;8661;45.700;4.880;2023-05-10T03:22:52;12.70;99.90
17092;DHT22;8661;45.700;4.880;2023-05-10T03:25:21;12.60;99.90
17092;DHT22;8661;45.700;4.880;2023-05-10T03:27:52;12.60;99.90
17092;DHT22;8661;45.700;4.880;2023-05-10T03:30:19;12.60;99.90
17092;DHT22;8661;45.700;4.880;2023-05-10T03:32:46;12.50;99.90
17092;DHT22;8661;45.700;4.880;2023-05-10T03:35:13;12.50;99.90
17092;DHT22;8661;45.700;4.880;2023-05-10T03:37:40;12.40;99.90
17092;DHT22;8661;45.700;4.880;2023-05-10T03:40:09;12.40;99.90
17092;DHT22;8661;45.700;4.880;2023-05-10T03:42:36;12.30;99.90
17092;DHT22;8661;45.700;4.880;2023-05-10T03:45:05;12.30;99.90
17092;DHT22;8661;45.700;4.880;2023-05-10T03:47:33;12.20;99.90
17092;DHT22;8661;45.700;4.880;2023-05-10T03:50:00;12.10;99.90
17092;DHT22;8661;45.700;4.880;2023-05-10T03:52:27;12.10;99.90
17092;DHT22;8661;45.700;4.880;2023-05-10T03:54:54;12.00;99.90
17092;DHT22;8661;45.700;4.880;2023-05-10T03:57:20;12.00;99.90
17092;DHT22;8661;45.700;4.880;2023-05-10T03:59:47;12.00;99.90
17092;DHT22;8661;45.700;4.880;2023-05-10T04:02:15;11.90;99.90
17092;DHT22;8661;45.700;4.880;2023-05-10T04:04:42;11.90;99.90
17092;DHT22;8661;45.700;4.880;2023-05-10T04:07:09;11.80;99.90
17092;DHT22;8661;45.700;4.880;2023-05-10T04:09:36;11.80;99.90
17092;DHT22;8661;45.700;4.880;2023-05-10T04:12:03;11.80;99.90
17092;DHT22;8661;45.700;4.880;2023-05-10T04:14:31;11.70;99.90
17092;DHT22;8661;45.700;4.880;2023-05-10T04:16:57;11.70;99.90
17092;DHT22;8661;45.700;4.880;2023-05-10T04:19:29;11.60;99.90
17092;DHT22;8661;45.700;4.880;2023-05-10T04:21:56;11.50;99.90
17092;DHT22;8661;45.700;4.880;2023-05-10T04:24:23;11.50;99.90
17092;DHT22;8661;45.700;4.880;2023-05-10T04:26:50;11.40;99.90
17092;DHT22;8661;45.700;4.880;2023-05-10T04:29:17;11.40;99.90
17092;DHT22;8661;45.700;4.880;2023-05-10T04:31:44;11.40;99.90
17092;DHT22;8661;45.700;4.880;2023-05-10T04:34:10;11.40;99.90
17092;DHT22;8661;45.700;4.880;2023-05-10T04:36:39;11.40;99.90
17092;DHT22;8661;45.700;4.880;2023-05-10T04:39:06;11.40;99.90
17092;DHT22;8661;45.700;4.880;2023-05-10T04:41:32;11.30;99.90
17092;DHT22;8661;45.700;4.880;2023-05-10T04:43:59;11.30;99.90
17092;DHT22;8661;45.700;4.880;2023-05-10T04:46:27;11.30;99.90
17092;DHT22;8661;45.700;4.880;2023-05-10T04:48:54;11.30;99.90
17092;DHT22;8661;45.700;4.880;2023-05-10T04:51:22;11.30;99.90
17092;DHT22;8661;45.700;4.880;2023-05-10T04:53:51;11.20;99.90
17092;DHT22;8661;45.700;4.880;2023-05-10T04:56:18;11.20;99.90
17092;DHT22;8661;45.700;4.880;2023-05-10T04:58:44;11.20;99.90
17092;DHT22;8661;45.700;4.880;2023-05-10T05:01:11;11.20;99.90
17092;DHT22;8661;45.700;4.880;2023-05-10T05:03:38;11.30;99.90
17092;DHT22;8661;45.700;4.880;2023-05-10T05:06:05;11.40;99.90
17092;DHT22;8661;45.700;4.880;2023-05-10T05:08:32;11.40;99.90
17092;DHT22;8661;45.700;4.880;2023-05-10T05:11:22;11.40;99.90
17092;DHT22;8661;45.700;4.880;2023-05-10T05:13:50;11.50;99.90
17092;DHT22;8661;45.700;4.880;2023-05-10T05:16:17;11.60;99.90
17092;DHT22;8661;45.700;4.880;2023-05-10T05:19:25;11.70;99.90
17092;DHT22;8661;45.700;4.880;2023-05-10T05:22:35;12.00;99.90
17092;DHT22;8661;45.700;4.880;2023-05-10T05:25:03;12.20;99.90
17092;DHT22;8661;45.700;4.880;2023-05-10T05:27:35;12.60;99.90
17092;DHT22;8661;45.700;4.880;2023-05-10T05:30:03;12.90;99.90
17092;DHT22;8661;45.700;4.880;2023-05-10T05:32:30;13.20;99.90
17092;DHT22;8661;45.700;4.880;2023-05-10T05:34:58;13.50;99.90
17092;DHT22;8661;45.700;4.880;2023-05-10T05:37:45;13.80;99.90
17092;DHT22;8661;45.700;4.880;2023-05-10T05:40:13;14.20;99.90
17092;DHT22;8661;45.700;4.880;2023-05-10T05:42:44;14.60;99.90
17092;DHT22;8661;45.700;4.880;2023-05-10T05:45:18;15.00;99.90
17092;DHT22;8661;45.700;4.880;2023-05-10T05:47:48;15.20;99.90
17092;DHT22;8661;45.700;4.880;2023-05-10T05:50:16;15.50;99.90
17092;DHT22;8661;45.700;4.880;2023-05-10T05:52:44;15.80;99.90
17092;DHT22;8661;45.700;4.880;2023-05-10T05:55:11;16.00;99.90
17092;DHT22;8661;45.700;4.880;2023-05-10T05:57:38;16.30;99.90
17092;DHT22;8661;45.700;4.880;2023-05-10T06:00:08;16.70;99.90
17092;DHT22;8661;45.700;4.880;2023-05-10T06:02:37;16.90;99.90
17092;DHT22;8661;45.700;4.880;2023-05-10T06:05:14;17.20;99.90
17092;DHT22;8661;45.700;4.880;2023-05-10T06:07:42;17.50;99.90
17092;DHT22;8661;45.700;4.880;2023-05-10T06:10:10;17.60;99.90
17092;DHT22;8661;45.700;4.880;2023-05-10T06:12:37;18.10;99.90
17092;DHT22;8661;45.700;4.880;2023-05-10T06:15:08;18.30;99.90
17092;DHT22;8661;45.700;4.880;2023-05-10T06:17:35;18.40;99.90
17092;DHT22;8661;45.700;4.880;2023-05-10T06:20:05;18.70;99.90
17092;DHT22;8661;45.700;4.880;2023-05-10T06:22:32;19.00;99.90
17092;DHT22;8661;45.700;4.880;2023-05-10T06:25:00;19.40;99.90
17092;DHT22;8661;45.700;4.880;2023-05-10T06:27:27;19.30;99.90
17092;DHT22;8661;45.700;4.880;2023-05-10T06:29:54;19.20;99.90
17092;DHT22;8661;45.700;4.880;2023-05-10T06:32:24;19.30;99.90
17092;DHT22;8661;45.700;4.880;2023-05-10T06:34:52;19.70;99.90
17092;DHT22;8661;45.700;4.880;2023-05-10T06:37:39;20.00;99.90
17092;DHT22;8661;45.700;4.880;2023-05-10T06:40:10;19.60;99.90
17092;DHT22;8661;45.700;4.880;2023-05-10T06:42:37;19.00;99.90
17092;DHT22;8661;45.700;4.880;2023-05-10T06:45:06;19.40;99.90
17092;DHT22;8661;45.700;4.880;2023-05-10T06:47:35;19.80;99.90
17092;DHT22;8661;45.700;4.880;2023-05-10T06:50:03;20.40;99.90
17092;DHT22;8661;45.700;4.880;2023-05-10T06:52:42;20.70;98.60
17092;DHT22;8661;45.700;4.880;2023-05-10T06:55:11;20.30;98.60
17092;DHT22;8661;45.700;4.880;2023-05-10T06:57:38;20.40;99.00
17092;DHT22;8661;45.700;4.880;2023-05-10T07:00:06;20.70;97.70
17092;DHT22;8661;45.700;4.880;2023-05-10T07:02:37;21.20;97.10
17092;DHT22;8661;45.700;4.880;2023-05-10T07:05:05;21.60;95.20
17092;DHT22;8661;45.700;4.880;2023-05-10T07:07:32;21.30;95.20
17092;DHT22;8661;45.700;4.880;2023-05-10T07:10:00;20.90;95.80
17092;DHT22;8661;45.700;4.880;2023-05-10T07:12:27;21.60;95.40
17092;DHT22;8661;45.700;4.880;2023-05-10T07:14:54;22.20;94.20
17092;DHT22;8661;45.700;4.880;2023-05-10T07:17:20;22.00;93.10
17092;DHT22;8661;45.700;4.880;2023-05-10T07:19:49;22.10;92.70
17092;DHT22;8661;45.700;4.880;2023-05-10T07:22:16;22.40;92.40
17092;DHT22;8661;45.700;4.880;2023-05-10T07:24:43;22.30;92.30
17092;DHT22;8661;45.700;4.880;2023-05-10T07:27:10;21.70;91.40
17092;DHT22;8661;45.700;4.880;2023-05-10T07:29:37;21.30;92.60
17092;DHT22;8661;45.700;4.880;2023-05-10T07:32:04;21.20;92.30
17092;DHT22;8661;45.700;4.880;2023-05-10T07:34:31;21.40;92.50
17092;DHT22;8661;45.700;4.880;2023-05-10T07:36:59;22.20;91.20
17092;DHT22;8661;45.700;4.880;2023-05-10T07:39:27;22.40;90.40
17092;DHT22;8661;45.700;4.880;2023-05-10T07:41:54;22.60;90.30
17092;DHT22;8661;45.700;4.880;2023-05-10T07:44:21;22.50;89.60
17092;DHT22;8661;45.700;4.880;2023-05-10T07:46:48;22.20;89.70
17092;DHT22;8661;45.700;4.880;2023-05-10T07:49:15;22.40;90.20
17092;DHT22;8661;45.700;4.880;2023-05-10T07:51:42;22.40;89.80
17092;DHT22;8661;45.700;4.880;2023-05-10T07:54:10;22.30;90.60
17092;DHT22;8661;45.700;4.880;2023-05-10T07:56:38;22.10;90.40
17092;DHT22;8661;45.700;4.880;2023-05-10T07:59:06;22.00;90.00
17092;DHT22;8661;45.700;4.880;2023-05-10T08:01:34;22.30;90.30
17092;DHT22;8661;45.700;4.880;2023-05-10T08:04:01;22.60;89.30
17092;DHT22;8661;45.700;4.880;2023-05-10T08:06:28;22.40;89.00
17092;DHT22;8661;45.700;4.880;2023-05-10T08:08:55;21.80;89.80
17092;DHT22;8661;45.700;4.880;2023-05-10T08:11:24;21.30;90.10
17092;DHT22;8661;45.700;4.880;2023-05-10T08:13:51;20.90;91.00
17092;DHT22;8661;45.700;4.880;2023-05-10T08:16:18;20.60;91.30
17092;DHT22;8661;45.700;4.880;2023-05-10T08:18:46;20.00;91.00
17092;DHT22;8661;45.700;4.880;2023-05-10T08:21:13;19.60;92.10
17092;DHT22;8661;45.700;4.880;2023-05-10T08:23:40;19.40;93.00
17092;DHT22;8661;45.700;4.880;2023-05-10T08:26:09;19.30;93.20
17092;DHT22;8661;45.700;4.880;2023-05-10T08:28:37;19.20;92.70
17092;DHT22;8661;45.700;4.880;2023-05-10T08:31:04;19.10;93.30
17092;DHT22;8661;45.700;4.880;2023-05-10T08:33:32;19.10;93.00
17092;DHT22;8661;45.700;4.880;2023-05-10T08:35:59;19.20;93.10
17092;DHT22;8661;45.700;4.880;2023-05-10T08:38:26;19.10;93.30
17092;DHT22;8661;45.700;4.880;2023-05-10T08:40:54;19.10;94.10
17092;DHT22;8661;45.700;4.880;2023-05-10T08:43:26;19.20;93.90
17092;DHT22;8661;45.700;4.880;2023-05-10T08:45:55;19.10;93.30
17092;DHT22;8661;45.700;4.880;2023-05-10T08:48:40;18.90;92.90
17092;DHT22;8661;45.700;4.880;2023-05-10T08:51:09;18.90;94.40
17092;DHT22;8661;45.700;4.880;2023-05-10T08:53:37;19.10;94.20
17092;DHT22;8661;45.700;4.880;2023-05-10T08:56:04;19.10;94.00
17092;DHT22;8661;45.700;4.880;2023-05-10T08:58:32;18.90;93.40
17092;DHT22;8661;45.700;4.880;2023-05-10T09:01:00;18.60;93.70
17092;DHT22;8661;45.700;4.880;2023-05-10T09:03:27;18.60;94.00
17092;DHT22;8661;45.700;4.880;2023-05-10T09:05:55;18.60;93.60
17092;DHT22;8661;45.700;4.880;2023-05-10T09:08:23;18.50;93.30
17092;DHT22;8661;45.700;4.880;2023-05-10T09:10:51;18.20;94.30
17092;DHT22;8661;45.700;4.880;2023-05-10T09:13:19;18.40;93.80
17092;DHT22;8661;45.700;4.880;2023-05-10T09:15:47;18.20;93.70
17092;DHT22;8661;45.700;4.880;2023-05-10T09:18:16;17.90;93.90
17092;DHT22;8661;45.700;4.880;2023-05-10T09:20:43;17.80;94.10
17092;DHT22;8661;45.700;4.880;2023-05-10T09:23:10;17.60;93.80
17092;DHT22;8661;45.700;4.880;2023-05-10T09:25:37;17.30;94.60
17092;DHT22;8661;45.700;4.880;2023-05-10T09:28:06;17.60;95.30
17092;DHT22;8661;45.700;4.880;2023-05-10T09:30:34;17.60;94.90
17092;DHT22;8661;45.700;4.880;2023-05-10T09:33:01;17.60;95.20
17092;DHT22;8661;45.700;4.880;2023-05-10T09:35:31;17.20;95.10
17092;DHT22;8661;45.700;4.880;2023-05-10T09:38:00;16.60;95.70
17092;DHT22;8661;45.700;4.880;2023-05-10T09:40:28;16.30;96.10
17092;DHT22;8661;45.700;4.880;2023-05-10T09:42:58;16.20;96.80
17092;DHT22;8661;45.700;4.880;2023-05-10T09:45:26;16.00;97.20
17092;DHT22;8661;45.700;4.880;2023-05-10T09:47:53;15.90;97.10
17092;DHT22;8661;45.700;4.880;2023-05-10T09:50:20;15.90;97.40
17092;DHT22;8661;45.700;4.880;2023-05-10T09:52:50;16.00;97.60
17092;DHT22;8661;45.700;4.880;2023-05-10T09:55:18;16.10;97.40
17092;DHT22;8661;45.700;4.880;2023-05-10T09:57:46;16.20;97.00
17092;DHT22;8661;45.700;4.880;2023-05-10T10:00:17;16.30;96.90
17092;DHT22;8661;45.700;4.880;2023-05-10T10:02:47;16.80;96.50
17092;DHT22;8661;45.700;4.880;2023-05-10T10:05:14;18.10;95.50
17092;DHT22;8661;45.700;4.880;2023-05-10T10:07:41;19.10;94.30
17092;DHT22;8661;45.700;4.880;2023-05-10T10:10:10;19.30;92.40
17092;DHT22;8661;45.700;4.880;2023-05-10T10:12:41;19.10;92.70
17092;DHT22;8661;45.700;4.880;2023-05-10T10:15:09;19.10;92.70
17092;DHT22;8661;45.700;4.880;2023-05-10T10:17:37;19.30;92.10
17092;DHT22;8661;45.700;4.880;2023-05-10T10:20:06;19.40;91.90
17092;DHT22;8661;45.700;4.880;2023-05-10T10:22:34;19.00;91.90
17092;DHT22;8661;45.700;4.880;2023-05-10T10:25:00;19.30;91.90
17092;DHT22;8661;45.700;4.880;2023-05-10T10:27:37;19.80;90.40
17092;DHT22;8661;45.700;4.880;2023-05-10T10:30:15;19.90;90.50
17092;DHT22;8661;45.700;4.880;2023-05-10T10:33:10;20.50;88.30
17092;DHT22;8661;45.700;4.880;2023-05-10T10:35:40;20.80;85.10
17092;DHT22;8661;45.700;4.880;2023-05-10T10:38:08;21.40;86.10
17092;DHT22;8661;45.700;4.880;2023-05-10T10:40:35;21.90;84.20
17092;DHT22;8661;45.700;4.880;2023-05-10T10:43:23;22.50;83.80
17092;DHT22;8661;45.700;4.880;2023-05-10T10:46:10;23.10;78.80
17092;DHT22;8661;45.700;4.880;2023-05-10T10:48:38;22.90;80.40
17092;DHT22;8661;45.700;4.880;2023-05-10T10:51:05;23.70;78.30
17092;DHT22;8661;45.700;4.880;2023-05-10T10:53:32;24.40;78.60
17092;DHT22;8661;45.700;4.880;2023-05-10T10:56:05;25.40;74.60
17092;DHT22;8661;45.700;4.880;2023-05-10T10:58:37;26.30;71.90
17092;DHT22;8661;45.700;4.880;2023-05-10T11:01:11;26.40;70.70
17092;DHT22;8661;45.700;4.880;2023-05-10T11:03:39;26.00;70.00
17092;DHT22;8661;45.700;4.880;2023-05-10T11:06:06;25.60;70.80
17092;DHT22;8661;45.700;4.880;2023-05-10T11:08:40;25.00;70.70
17092;DHT22;8661;45.700;4.880;2023-05-10T11:11:08;24.30;71.70
17092;DHT22;8661;45.700;4.880;2023-05-10T11:13:43;23.60;74.50
17092;DHT22;8661;45.700;4.880;2023-05-10T11:16:12;23.20;75.00
17092;DHT22;8661;45.700;4.880;2023-05-10T11:18:39;22.20;76.60
17092;DHT22;8661;45.700;4.880;2023-05-10T11:21:08;21.50;78.40
17092;DHT22;8661;45.700;4.880;2023-05-10T11:23:48;21.00;78.60
17092;DHT22;8661;45.700;4.880;2023-05-10T11:26:16;20.40;80.70
17092;DHT22;8661;45.700;4.880;2023-05-10T11:28:48;19.70;82.30
17092;DHT22;8661;45.700;4.880;2023-05-10T11:31:16;19.70;83.20
17092;DHT22;8661;45.700;4.880;2023-05-10T11:33:43;20.10;84.30
17092;DHT22;8661;45.700;4.880;2023-05-10T11:36:11;20.60;84.00
17092;DHT22;8661;45.700;4.880;2023-05-10T11:38:38;21.50;82.10
17092;DHT22;8661;45.700;4.880;2023-05-10T11:41:05;22.40;79.90
17092;DHT22;8661;45.700;4.880;2023-05-10T11:43:32;22.60;77.20
17092;DHT22;8661;45.700;4.880;2023-05-10T11:46:00;22.40;77.60
17092;DHT22;8661;45.700;4.880;2023-05-10T11:48:27;21.80;77.30
17092;DHT22;8661;45.700;4.880;2023-05-10T11:50:55;21.40;77.80
17092;DHT22;8661;45.700;4.880;2023-05-10T11:53:25;21.20;79.20
17092;DHT22;8661;45.700;4.880;2023-05-10T11:55:52;21.40;80.10
17092;DHT22;8661;45.700;4.880;2023-05-10T11:58:19;21.50;79.60
17092;DHT22;8661;45.700;4.880;2023-05-10T12:00:47;21.50;77.80
17092;DHT22;8661;45.700;4.880;2023-05-10T12:03:15;21.60;77.40
17092;DHT22;8661;45.700;4.880;2023-05-10T12:05:42;21.50;76.70
17092;DHT22;8661;45.700;4.880;2023-05-10T12:08:13;21.60;77.60
17092;DHT22;8661;45.700;4.880;2023-05-10T12:10:40;21.70;78.10
17092;DHT22;8661;45.700;4.880;2023-05-10T12:13:11;21.50;77.70
17092;DHT22;8661;45.700;4.880;2023-05-10T12:15:39;21.30;77.70
17092;DHT22;8661;45.700;4.880;2023-05-10T12:18:05;21.00;77.60
17092;DHT22;8661;45.700;4.880;2023-05-10T12:20:36;21.10;77.90
17092;DHT22;8661;45.700;4.880;2023-05-10T12:23:03;21.60;78.50
17092;DHT22;8661;45.700;4.880;2023-05-10T12:25:32;22.10;78.10
17092;DHT22;8661;45.700;4.880;2023-05-10T12:28:02;22.50;75.90
17092;DHT22;8661;45.700;4.880;2023-05-10T12:30:31;22.80;73.10
17092;DHT22;8661;45.700;4.880;2023-05-10T12:33:02;22.50;75.50
17092;DHT22;8661;45.700;4.880;2023-05-10T12:35:38;23.50;74.30
17092;DHT22;8661;45.700;4.880;2023-05-10T12:38:28;23.80;72.20
17092;DHT22;8661;45.700;4.880;2023-05-10T12:40:56;23.70;69.70
17092;DHT22;8661;45.700;4.880;2023-05-10T12:43:23;23.10;72.50
17092;DHT22;8661;45.700;4.880;2023-05-10T12:45:50;23.80;73.30
17092;DHT22;8661;45.700;4.880;2023-05-10T12:48:17;24.80;71.20
17092;DHT22;8661;45.700;4.880;2023-05-10T12:50:45;25.20;70.90
17092;DHT22;8661;45.700;4.880;2023-05-10T12:53:13;25.30;69.10
17092;DHT22;8661;45.700;4.880;2023-05-10T12:55:42;25.30;69.40
17092;DHT22;8661;45.700;4.880;2023-05-10T12:58:09;25.90;68.80
17092;DHT22;8661;45.700;4.880;2023-05-10T13:00:36;26.90;66.60
17092;DHT22;8661;45.700;4.880;2023-05-10T13:03:03;27.60;64.60
17092;DHT22;8661;45.700;4.880;2023-05-10T13:05:31;28.50;63.40
17092;DHT22;8661;45.700;4.880;2023-05-10T13:07:58;29.10;62.90
17092;DHT22;8661;45.700;4.880;2023-05-10T13:10:25;29.40;61.40
17092;DHT22;8661;45.700;4.880;2023-05-10T13:12:53;30.00;60.60
17092;DHT22;8661;45.700;4.880;2023-05-10T13:15:22;30.40;59.70
17092;DHT22;8661;45.700;4.880;2023-05-10T13:17:49;30.80;60.10
17092;DHT22;8661;45.700;4.880;2023-05-10T13:20:16;30.10;58.50
17092;DHT22;8661;45.700;4.880;2023-05-10T13:22:43;28.90;58.10
17092;DHT22;8661;45.700;4.880;2023-05-10T13:25:10;28.00;59.30
17092;DHT22;8661;45.700;4.880;2023-05-10T13:27:38;27.40;59.70
17092;DHT22;8661;45.700;4.880;2023-05-10T13:30:07;26.80;61.30
17092;DHT22;8661;45.700;4.880;2023-05-10T13:32:35;26.70;62.40
17092;DHT22;8661;45.700;4.880;2023-05-10T13:35:02;26.60;62.60
17092;DHT22;8661;45.700;4.880;2023-05-10T13:37:30;26.40;62.70
17092;DHT22;8661;45.700;4.880;2023-05-10T13:39:57;26.30;62.40
17092;DHT22;8661;45.700;4.880;2023-05-10T13:42:24;26.20;63.40
17092;DHT22;8661;45.700;4.880;2023-05-10T13:44:51;25.80;63.40
17092;DHT22;8661;45.700;4.880;2023-05-10T13:47:20;25.70;63.40
17092;DHT22;8661;45.700;4.880;2023-05-10T13:49:47;25.00;63.50
17092;DHT22;8661;45.700;4.880;2023-05-10T13:52:14;24.40;64.40
17092;DHT22;8661;45.700;4.880;2023-05-10T13:54:41;23.50;67.40
17092;DHT22;8661;45.700;4.880;2023-05-10T13:57:08;23.90;66.90
17092;DHT22;8661;45.700;4.880;2023-05-10T13:59:37;24.50;65.70
17092;DHT22;8661;45.700;4.880;2023-05-10T14:02:04;24.50;65.90
17092;DHT22;8661;45.700;4.880;2023-05-10T14:04:32;24.50;65.50
17092;DHT22;8661;45.700;4.880;2023-05-10T14:07:00;24.40;66.90
17092;DHT22;8661;45.700;4.880;2023-05-10T14:09:27;24.20;65.80
17092;DHT22;8661;45.700;4.880;2023-05-10T14:11:54;23.90;66.20
17092;DHT22;8661;45.700;4.880;2023-05-10T14:14:21;23.40;66.80
17092;DHT22;8661;45.700;4.880;2023-05-10T14:16:48;23.20;67.80
17092;DHT22;8661;45.700;4.880;2023-05-10T14:19:15;22.60;68.40
17092;DHT22;8661;45.700;4.880;2023-05-10T14:21:43;22.30;69.30
17092;DHT22;8661;45.700;4.880;2023-05-10T14:24:10;22.30;69.10
17092;DHT22;8661;45.700;4.880;2023-05-10T14:26:37;21.80;69.10
17092;DHT22;8661;45.700;4.880;2023-05-10T14:29:04;21.40;70.40
17092;DHT22;8661;45.700;4.880;2023-05-10T14:31:31;21.40;70.00
17092;DHT22;8661;45.700;4.880;2023-05-10T14:33:58;21.40;69.80
17092;DHT22;8661;45.700;4.880;2023-05-10T14:36:25;21.40;69.60
17092;DHT22;8661;45.700;4.880;2023-05-10T14:38:53;21.50;70.40
17092;DHT22;8661;45.700;4.880;2023-05-10T14:41:20;21.60;72.50
17092;DHT22;8661;45.700;4.880;2023-05-10T14:43:47;22.20;71.70
17092;DHT22;8661;45.700;4.880;2023-05-10T14:46:14;22.90;69.40
17092;DHT22;8661;45.700;4.880;2023-05-10T14:48:41;23.40;68.20
17092;DHT22;8661;45.700;4.880;2023-05-10T14:51:08;23.50;67.20
17092;DHT22;8661;45.700;4.880;2023-05-10T14:53:35;23.40;67.70
17092;DHT22;8661;45.700;4.880;2023-05-10T14:56:03;22.40;68.00
17092;DHT22;8661;45.700;4.880;2023-05-10T14:58:30;21.50;70.30
17092;DHT22;8661;45.700;4.880;2023-05-10T15:00:57;21.40;72.00
17092;DHT22;8661;45.700;4.880;2023-05-10T15:03:24;21.40;71.30
17092;DHT22;8661;45.700;4.880;2023-05-10T15:05:51;21.30;72.30
17092;DHT22;8661;45.700;4.880;2023-05-10T15:08:18;21.40;71.80
17092;DHT22;8661;45.700;4.880;2023-05-10T15:10:45;21.90;72.50
17092;DHT22;8661;45.700;4.880;2023-05-10T15:13:14;22.10;70.80
17092;DHT22;8661;45.700;4.880;2023-05-10T15:15:42;22.00;70.50
17092;DHT22;8661;45.700;4.880;2023-05-10T15:18:09;21.50;70.70
17092;DHT22;8661;45.700;4.880;2023-05-10T15:20:36;21.40;71.90
17092;DHT22;8661;45.700;4.880;2023-05-10T15:23:02;21.40;74.20
17092;DHT22;8661;45.700;4.880;2023-05-10T15:25:29;21.50;73.50
17092;DHT22;8661;45.700;4.880;2023-05-10T15:27:56;21.60;73.90
17092;DHT22;8661;45.700;4.880;2023-05-10T15:30:24;21.90;73.00
17092;DHT22;8661;45.700;4.880;2023-05-10T15:32:51;22.10;71.90
17092;DHT22;8661;45.700;4.880;2023-05-10T15:35:18;21.90;72.20
17092;DHT22;8661;45.700;4.880;2023-05-10T15:37:47;21.90;72.90
17092;DHT22;8661;45.700;4.880;2023-05-10T15:40:14;22.10;72.30
17092;DHT22;8661;45.700;4.880;2023-05-10T15:42:41;22.20;71.80
17092;DHT22;8661;45.700;4.880;2023-05-10T15:45:09;22.00;71.40
17092;DHT22;8661;45.700;4.880;2023-05-10T15:47:38;22.10;72.60
17092;DHT22;8661;45.700;4.880;2023-05-10T15:50:06;22.10;71.40
17092;DHT22;8661;45.700;4.880;2023-05-10T15:52:33;22.00;70.60
17092;DHT22;8661;45.700;4.880;2023-05-10T15:55:00;21.90;70.50
17092;DHT22;8661;45.700;4.880;2023-05-10T15:57:28;21.80;70.80